createdAt,value
2022-12-19T00:01:59.479Z,17.80
2022-12-19T00:04:27.865Z,18.73
2022-12-19T00:06:58.706Z,18.00
2022-12-19T00:09:27.217Z,17.70
2022-12-19T00:11:55.628Z,17.63
2022-12-19T00:14:25.223Z,17.53
2022-12-19T00:16:53.494Z,16.87
2022-12-19T00:19:22.231Z,18.73
2022-12-19T00:21:50.433Z,18.43
2022-12-19T00:24:21.444Z,18.20
2022-12-19T00:26:50.284Z,18.23
2022-12-19T00:29:18.478Z,18.67
2022-12-19T00:31:48.171Z,18.80
2022-12-19T00:34:16.455Z,17.33
2022-12-19T00:36:44.726Z,17.87
2022-12-19T00:39:12.942Z,17.80
2022-12-19T00:41:42.585Z,17.73
2022-12-19T00:44:11.980Z,17.50
2022-12-19T00:46:40.140Z,17.47
2022-12-19T00:49:09.668Z,17.57
2022-12-19T00:51:38.686Z,17.33
2022-12-19T00:54:07.900Z,16.93
2022-12-19T00:56:38.210Z,17.87
2022-12-19T00:59:07.108Z,17.33
2022-12-19T01:01:36.337Z,17.13
2022-12-19T01:06:58.087Z,17.67
2022-12-19T01:09:30.445Z,18.27
2022-12-19T01:12:16.185Z,18.63
2022-12-19T01:14:44.471Z,17.03
2022-12-19T01:17:12.802Z,17.97
2022-12-19T01:19:44.364Z,17.37
2022-12-19T01:22:14.549Z,17.27
2022-12-19T01:24:42.884Z,18.47
2022-12-19T01:27:11.152Z,18.80
2022-12-19T01:29:45.307Z,16.77
2022-12-19T01:32:21.103Z,17.57
2022-12-19T01:34:49.489Z,17.13
2022-12-19T01:37:19.053Z,16.43
2022-12-19T01:39:47.267Z,17.30
2022-12-19T01:42:16.728Z,16.73
2022-12-19T01:45:05.503Z,18.20
2022-12-19T01:47:35.230Z,17.53
2022-12-19T01:50:04.193Z,17.40
2022-12-19T01:52:34.558Z,16.93
2022-12-19T01:55:02.946Z,17.90
2022-12-19T01:57:31.170Z,17.63
2022-12-19T02:00:01.578Z,17.07
2022-12-19T02:02:31.443Z,17.30
2022-12-19T02:05:01.494Z,17.40
2022-12-19T02:07:30.031Z,17.73
2022-12-19T02:10:00.227Z,17.43
2022-12-19T02:12:30.177Z,17.27
2022-12-19T02:15:03.112Z,16.77
2022-12-19T02:17:36.017Z,16.13
2022-12-19T02:20:18.080Z,16.47
2022-12-19T02:22:56.090Z,17.27
2022-12-19T02:25:39.547Z,15.93
2022-12-19T02:28:22.613Z,17.97
2022-12-19T02:30:56.484Z,16.57
2022-12-19T02:33:28.074Z,17.40
2022-12-19T02:35:57.952Z,17.10
2022-12-19T02:38:30.632Z,17.87
2022-12-19T02:41:02.488Z,17.20
2022-12-19T02:43:32.389Z,17.67
2022-12-19T02:46:02.908Z,18.73
2022-12-19T02:48:31.668Z,18.07
2022-12-19T02:50:59.915Z,16.77
2022-12-19T02:53:28.124Z,17.90
2022-12-19T02:56:05.642Z,19.10
2022-12-19T02:58:46.171Z,18.03
2022-12-19T03:01:23.128Z,16.50
2022-12-19T03:03:58.452Z,18.77
2022-12-19T03:06:28.688Z,17.27
2022-12-19T03:09:00.768Z,17.03
2022-12-19T03:11:32.548Z,16.57
2022-12-19T03:14:01.886Z,16.97
2022-12-19T03:16:31.466Z,16.20
2022-12-19T03:18:59.789Z,16.70
2022-12-19T03:21:30.833Z,16.37
2022-12-19T03:23:59.382Z,16.47
2022-12-19T03:26:30.421Z,16.53
2022-12-19T03:29:01.253Z,16.23
2022-12-19T03:31:31.876Z,17.63
2022-12-19T03:34:02.615Z,15.83
2022-12-19T03:36:32.571Z,16.77
2022-12-19T03:39:01.616Z,16.43
2022-12-19T03:41:48.139Z,16.23
2022-12-19T03:44:16.953Z,16.60
2022-12-19T03:46:50.255Z,15.80
2022-12-19T03:49:18.528Z,15.93
2022-12-19T03:51:51.771Z,16.90
2022-12-19T03:54:24.832Z,16.20
2022-12-19T03:56:55.958Z,16.43
2022-12-19T03:59:27.763Z,17.07
2022-12-19T04:01:58.934Z,15.83
2022-12-19T04:04:28.682Z,16.20
2022-12-19T04:06:57.628Z,17.37
2022-12-19T04:09:26.266Z,16.50
2022-12-19T04:11:56.069Z,17.23
2022-12-19T04:14:27.048Z,16.33
2022-12-19T04:16:58.179Z,16.23
2022-12-19T04:19:31.758Z,16.93
2022-12-19T04:22:03.891Z,15.90
2022-12-19T04:24:35.131Z,16.00
2022-12-19T04:27:05.313Z,16.97
2022-12-19T04:29:34.866Z,16.47
2022-12-19T04:32:03.633Z,15.87
2022-12-19T04:34:33.559Z,16.07
2022-12-19T04:37:01.803Z,16.13
2022-12-19T04:39:30.180Z,16.53
2022-12-19T04:41:58.445Z,15.87
2022-12-19T04:44:26.660Z,16.27
2022-12-19T04:46:54.936Z,17.43
2022-12-19T04:49:23.210Z,17.27
2022-12-19T04:51:53.991Z,16.40
2022-12-19T04:54:22.818Z,16.40
2022-12-19T04:56:51.040Z,16.43
2022-12-19T04:59:19.328Z,16.70
2022-12-19T05:01:47.553Z,16.73
2022-12-19T05:04:15.856Z,16.17
2022-12-19T05:06:44.096Z,16.93
2022-12-19T05:09:13.874Z,16.27
2022-12-19T05:11:42.104Z,16.40
2022-12-19T05:14:10.407Z,16.07
2022-12-19T05:16:38.660Z,16.33
2022-12-19T05:19:06.868Z,16.33
2022-12-19T05:21:35.082Z,16.73
2022-12-19T05:24:03.409Z,16.07
2022-12-19T05:26:32.970Z,16.90
2022-12-19T05:29:01.173Z,16.63
2022-12-19T05:31:29.459Z,16.30
2022-12-19T05:33:57.706Z,16.80
2022-12-19T05:36:32.165Z,15.97
2022-12-19T05:39:00.766Z,17.10
2022-12-19T05:41:29.064Z,17.60
2022-12-19T05:43:58.702Z,16.17
2022-12-19T05:46:27.327Z,16.63
2022-12-19T05:48:56.376Z,17.37
2022-12-19T05:51:24.738Z,15.80
2022-12-19T05:53:52.928Z,16.77
2022-12-19T05:56:22.225Z,16.77
2022-12-19T05:58:51.194Z,17.73
2022-12-19T06:01:22.356Z,18.00
2022-12-19T06:03:51.005Z,17.40
2022-12-19T06:06:20.120Z,18.57
2022-12-19T06:08:48.349Z,18.53
2022-12-19T06:11:16.555Z,20.00
2022-12-19T06:13:44.802Z,19.77
2022-12-19T06:16:14.286Z,22.87
2022-12-19T06:18:45.570Z,21.17
2022-12-19T06:21:15.019Z,19.97
2022-12-19T06:23:43.558Z,20.30
2022-12-19T06:26:18.531Z,20.73
2022-12-19T06:28:47.699Z,20.73
2022-12-19T06:31:16.388Z,20.07
2022-12-19T06:33:46.063Z,20.77
2022-12-19T06:36:17.626Z,20.43
2022-12-19T06:38:45.893Z,20.97
2022-12-19T06:41:32.006Z,20.67
2022-12-19T06:44:00.598Z,20.10
2022-12-19T06:46:29.153Z,20.63
2022-12-19T06:48:59.077Z,22.40
2022-12-19T06:51:27.359Z,21.17
2022-12-19T06:53:55.900Z,22.47
2022-12-19T06:56:24.711Z,20.93
2022-12-19T06:58:52.967Z,21.33
2022-12-19T07:01:21.971Z,21.03
2022-12-19T07:03:50.868Z,23.30
2022-12-19T07:06:20.573Z,22.30
2022-12-19T07:08:49.255Z,22.13
2022-12-19T07:11:17.437Z,21.63
2022-12-19T07:13:45.681Z,22.67
2022-12-19T07:16:13.932Z,21.13
2022-12-19T07:18:42.589Z,22.33
2022-12-19T07:21:12.187Z,21.83
2022-12-19T07:23:45.917Z,22.30
2022-12-19T07:26:14.515Z,20.37
2022-12-19T07:28:44.543Z,21.37
2022-12-19T07:31:24.510Z,21.40
2022-12-19T07:33:52.747Z,21.83
2022-12-19T07:36:20.992Z,20.33
2022-12-19T07:38:50.762Z,21.00
2022-12-19T07:41:19.188Z,20.70
2022-12-19T07:43:47.649Z,20.17
2022-12-19T07:46:16.141Z,21.77
2022-12-19T07:48:44.479Z,22.30
2022-12-19T07:51:12.783Z,22.57
2022-12-19T07:53:41.074Z,22.10
2022-12-19T07:56:10.994Z,22.07
2022-12-19T07:58:39.286Z,21.83
2022-12-19T08:01:08.164Z,21.77
2022-12-19T08:03:36.663Z,21.83
2022-12-19T08:06:13.576Z,21.93
2022-12-19T08:08:42.280Z,21.90
2022-12-19T08:11:13.047Z,21.00
2022-12-19T08:13:46.497Z,22.00
2022-12-19T08:16:15.494Z,22.73
2022-12-19T08:18:43.771Z,22.03
2022-12-19T08:21:12.069Z,20.50
2022-12-19T08:23:40.476Z,20.73
2022-12-19T08:26:09.775Z,22.03
2022-12-19T08:28:39.823Z,19.87
2022-12-19T08:31:08.616Z,20.20
2022-12-19T08:33:39.771Z,20.80
2022-12-19T08:36:08.745Z,19.93
2022-12-19T08:38:36.992Z,20.60
2022-12-19T08:41:08.566Z,20.27
2022-12-19T08:43:39.129Z,20.67
2022-12-19T08:46:09.797Z,20.07
2022-12-19T08:48:38.467Z,19.33
2022-12-19T08:51:07.782Z,17.60
2022-12-19T08:53:39.229Z,18.60
2022-12-19T08:56:08.560Z,17.07
2022-12-19T08:58:36.829Z,17.53
2022-12-19T09:01:07.755Z,17.97
2022-12-19T09:04:04.570Z,17.50
2022-12-19T09:06:26.211Z,16.73
2022-12-19T09:09:00.343Z,16.60
2022-12-19T09:11:29.175Z,16.30
2022-12-19T09:13:58.215Z,16.37
2022-12-19T09:16:28.200Z,14.80
2022-12-19T09:18:59.434Z,15.87
2022-12-19T09:21:28.905Z,13.73
2022-12-19T09:24:03.444Z,14.27
2022-12-19T09:26:35.864Z,14.43
2022-12-19T09:29:19.600Z,13.63
2022-12-19T09:31:55.975Z,13.70
2022-12-19T09:34:37.089Z,13.87
2022-12-19T09:37:07.696Z,13.23
2022-12-19T09:39:36.560Z,13.70
2022-12-19T09:42:19.593Z,12.97
2022-12-19T09:45:06.907Z,13.30
2022-12-19T09:47:39.814Z,12.57
2022-12-19T09:50:16.865Z,12.37
2022-12-19T09:52:47.794Z,12.37
2022-12-19T09:55:20.877Z,14.30
2022-12-19T09:57:52.665Z,13.73
2022-12-19T10:00:22.273Z,13.27
2022-12-19T10:02:52.304Z,12.10
2022-12-19T10:05:42.849Z,12.57
2022-12-19T10:08:17.588Z,10.93
2022-12-19T10:12:35.387Z,12.33
2022-12-19T10:13:48.309Z,10.87
2022-12-19T10:16:18.744Z,11.63
2022-12-19T10:18:56.061Z,11.67
2022-12-19T10:22:07.524Z,11.90
2022-12-19T10:24:34.822Z,11.23
2022-12-19T10:27:06.759Z,11.63
2022-12-19T10:29:49.123Z,11.40
2022-12-19T10:32:21.479Z,9.97
2022-12-19T10:34:50.243Z,10.37
2022-12-19T10:37:27.606Z,10.20
2022-12-19T10:40:05.029Z,10.13
2022-12-19T10:42:43.015Z,10.10
2022-12-19T10:45:15.075Z,10.67
2022-12-19T10:47:43.652Z,9.77
2022-12-19T10:50:15.772Z,9.87
2022-12-19T10:52:56.782Z,10.53
2022-12-19T10:55:45.543Z,9.57
2022-12-19T10:58:28.747Z,9.90
2022-12-19T11:01:13.548Z,9.73
2022-12-19T11:03:42.711Z,9.60
2022-12-19T11:06:25.924Z,10.20
2022-12-19T11:09:13.747Z,10.53
2022-12-19T11:14:37.824Z,9.83
2022-12-19T11:19:30.259Z,9.70
2022-12-19T11:27:46.440Z,10.37
2022-12-19T11:29:16.227Z,10.63
2022-12-19T11:29:34.221Z,9.47
2022-12-19T11:30:25.885Z,9.77
2022-12-19T11:30:38.841Z,10.70
2022-12-19T11:34:26.770Z,10.67
2022-12-19T11:36:57.590Z,9.60
2022-12-19T11:39:28.000Z,9.93
2022-12-19T11:42:03.156Z,10.00
2022-12-19T11:44:34.337Z,9.73
2022-12-19T11:47:06.125Z,9.33
2022-12-19T11:49:36.561Z,10.30
2022-12-19T11:52:36.914Z,12.30
2022-12-19T11:55:02.711Z,9.80
2022-12-19T11:57:32.382Z,10.40
2022-12-19T12:00:04.944Z,9.50
2022-12-19T12:02:47.670Z,10.47
2022-12-19T12:05:27.217Z,8.97
2022-12-19T12:08:22.116Z,9.77
2022-12-19T12:19:08.560Z,9.17
2022-12-19T12:24:10.606Z,11.70
2022-12-19T12:30:23.410Z,9.57
2022-12-19T12:31:14.155Z,9.60
2022-12-19T12:31:16.752Z,9.53
2022-12-19T12:31:46.923Z,8.03
2022-12-19T12:32:02.521Z,8.70
2022-12-19T12:35:33.277Z,7.33
2022-12-19T12:40:21.227Z,7.40
2022-12-19T12:42:55.479Z,6.73
2022-12-19T12:45:25.093Z,6.63
2022-12-19T12:47:54.887Z,9.00
2022-12-19T12:50:25.256Z,7.80
2022-12-19T12:52:54.765Z,7.17
2022-12-19T12:55:26.438Z,6.77
2022-12-19T12:57:54.687Z,7.30
2022-12-19T13:00:27.256Z,6.73
2022-12-19T13:02:59.649Z,7.13
2022-12-19T13:05:38.654Z,7.47
2022-12-19T13:08:22.138Z,7.07
2022-12-19T13:10:55.636Z,6.43
2022-12-19T13:13:43.918Z,6.63
2022-12-19T13:16:27.072Z,6.47
2022-12-19T13:19:19.745Z,6.57
2022-12-19T13:22:12.664Z,6.20
2022-12-19T13:24:41.523Z,6.20
2022-12-19T13:27:33.217Z,6.60
2022-12-19T13:30:07.456Z,5.97
2022-12-19T13:32:57.802Z,6.77
2022-12-19T13:38:40.543Z,6.77
2022-12-19T13:39:59.028Z,6.63
2022-12-19T13:41:45.862Z,7.97
2022-12-19T13:44:14.119Z,6.37
2022-12-19T13:46:43.488Z,6.70
2022-12-19T13:49:14.704Z,6.50
2022-12-19T13:51:47.670Z,8.07
2022-12-19T13:54:21.102Z,7.77
2022-12-19T13:56:49.331Z,8.30
2022-12-19T13:59:19.523Z,7.60
2022-12-19T14:01:48.011Z,7.43
2022-12-19T14:04:27.112Z,7.23
2022-12-19T14:06:58.845Z,8.07
2022-12-19T14:11:38.765Z,7.50
2022-12-19T14:13:44.991Z,7.77
2022-12-19T14:15:30.455Z,7.50
2022-12-19T14:18:41.704Z,8.17
2022-12-19T14:22:06.855Z,8.23
2022-12-19T14:23:43.696Z,8.30
2022-12-19T14:28:19.581Z,8.60
2022-12-19T14:29:06.546Z,8.30
2022-12-19T14:31:35.772Z,8.40
2022-12-19T14:34:42.925Z,8.97
2022-12-19T14:36:54.199Z,8.93
2022-12-19T14:39:29.361Z,8.63
2022-12-19T14:42:32.996Z,8.60
2022-12-19T14:52:35.345Z,9.20
2022-12-19T14:53:51.255Z,8.60
2022-12-19T14:54:05.830Z,8.37
2022-12-19T14:57:25.428Z,8.53
2022-12-19T15:01:08.049Z,8.57
2022-12-19T15:03:15.931Z,8.77
2022-12-19T15:05:44.646Z,9.03
2022-12-19T15:08:13.036Z,9.20
2022-12-19T15:11:08.135Z,8.30
2022-12-19T15:14:54.989Z,8.57
2022-12-19T15:16:25.388Z,8.20
2022-12-19T15:18:55.207Z,7.93
2022-12-19T15:21:23.526Z,8.23
2022-12-19T15:23:51.881Z,8.37
2022-12-19T15:26:54.189Z,7.87
2022-12-19T15:29:24.021Z,7.83
2022-12-19T15:31:52.412Z,7.90
2022-12-19T15:34:48.284Z,8.50
2022-12-19T15:37:12.433Z,8.30
2022-12-19T15:39:41.215Z,7.30
2022-12-19T15:42:17.557Z,8.10
2022-12-19T15:44:48.300Z,7.30
2022-12-19T15:47:19.567Z,7.40
2022-12-19T15:49:48.111Z,7.20
2022-12-19T15:52:17.877Z,7.57
2022-12-19T15:54:49.386Z,7.60
2022-12-19T15:57:21.511Z,7.33
2022-12-19T15:59:51.433Z,7.10
2022-12-19T16:02:22.360Z,7.77
2022-12-19T16:04:55.548Z,7.20
2022-12-19T16:07:28.261Z,7.20
2022-12-19T16:09:56.879Z,6.83
2022-12-19T16:12:26.557Z,7.43
2022-12-19T16:14:58.422Z,6.50
2022-12-19T16:17:27.685Z,7.13
2022-12-19T16:19:56.260Z,6.67
2022-12-19T16:22:25.946Z,7.20
2022-12-19T16:24:54.852Z,6.60
2022-12-19T16:27:25.095Z,6.50
2022-12-19T16:29:53.538Z,6.77
2022-12-19T16:32:24.142Z,6.27
2022-12-19T16:34:53.192Z,6.93
2022-12-19T16:37:23.573Z,6.47
2022-12-19T16:39:55.924Z,6.57
2022-12-19T16:42:24.325Z,6.87
2022-12-19T16:44:53.568Z,6.50
2022-12-19T16:47:23.278Z,6.43
2022-12-19T16:49:51.631Z,6.47
2022-12-19T16:52:20.024Z,6.50
2022-12-19T16:54:48.283Z,6.27
2022-12-19T16:57:19.558Z,6.57
2022-12-19T16:59:47.961Z,6.63
2022-12-19T17:02:38.527Z,6.30
2022-12-19T17:05:07.877Z,7.07
2022-12-19T17:07:37.141Z,7.10
2022-12-19T17:10:05.748Z,7.53
2022-12-19T17:12:34.414Z,7.07
2022-12-19T17:15:02.925Z,7.17
2022-12-19T17:17:32.615Z,7.20
2022-12-19T17:20:01.066Z,7.73
2022-12-19T17:22:29.801Z,7.40
2022-12-19T17:24:58.709Z,8.33
2022-12-19T17:27:26.975Z,7.50
2022-12-19T17:29:55.796Z,7.27
2022-12-19T17:32:25.317Z,6.83
2022-12-19T17:34:55.150Z,7.53
2022-12-19T17:37:23.523Z,7.40
2022-12-19T17:39:51.916Z,6.77
2022-12-19T17:42:21.729Z,6.57
2022-12-19T17:44:50.036Z,7.63
2022-12-19T17:47:19.607Z,7.80
2022-12-19T17:49:48.239Z,7.03
2022-12-19T17:52:18.967Z,6.93
2022-12-19T17:54:47.345Z,6.30
2022-12-19T17:57:15.993Z,6.63
2022-12-19T17:59:46.380Z,6.87
2022-12-19T18:02:21.159Z,6.30
2022-12-19T18:04:49.743Z,6.63
2022-12-19T18:07:19.873Z,6.37
2022-12-19T18:09:48.257Z,6.30
2022-12-19T18:12:16.659Z,6.20
2022-12-19T18:14:44.984Z,6.40
2022-12-19T18:17:14.019Z,7.43
2022-12-19T18:19:42.303Z,5.80
2022-12-19T18:22:13.477Z,6.03
2022-12-19T18:24:43.208Z,5.80
2022-12-19T18:27:11.480Z,6.27
2022-12-19T18:29:39.936Z,6.10
2022-12-19T18:32:08.211Z,5.77
2022-12-19T18:34:36.587Z,5.97
2022-12-19T18:37:05.614Z,5.03
2022-12-19T18:39:34.211Z,5.20
2022-12-19T18:42:04.055Z,5.10
2022-12-19T18:44:32.423Z,4.83
2022-12-19T18:47:01.269Z,4.80
2022-12-19T18:49:29.564Z,6.00
2022-12-19T18:51:58.029Z,7.53
2022-12-19T18:54:26.320Z,6.70
2022-12-19T18:56:54.671Z,5.53
2022-12-19T18:59:27.469Z,4.67
2022-12-19T19:01:56.352Z,4.20
2022-12-19T19:04:27.026Z,4.50
2022-12-19T19:06:55.876Z,4.53
2022-12-19T19:09:24.263Z,4.17
2022-12-19T19:11:53.943Z,4.20
2022-12-19T19:14:23.635Z,4.40
2022-12-19T19:16:52.585Z,4.30
2022-12-19T19:19:21.123Z,4.27
2022-12-19T19:21:49.529Z,4.60
2022-12-19T19:24:19.570Z,4.33
2022-12-19T19:26:47.919Z,3.90
2022-12-19T19:29:18.929Z,4.33
2022-12-19T19:31:50.325Z,5.60
2022-12-19T19:34:21.851Z,4.40
2022-12-19T19:36:53.654Z,4.00
2022-12-19T19:39:22.816Z,4.47
2022-12-19T19:41:51.171Z,4.67
2022-12-19T19:44:19.450Z,4.23
2022-12-19T19:46:49.244Z,4.37
2022-12-19T19:49:17.688Z,4.17
2022-12-19T19:51:46.048Z,4.27
2022-12-19T19:54:14.425Z,4.60
2022-12-19T19:56:42.964Z,4.53
2022-12-19T19:59:11.404Z,4.70
2022-12-19T20:01:39.845Z,6.37
2022-12-19T20:04:09.702Z,5.10
2022-12-19T20:06:38.246Z,4.13
2022-12-19T20:09:06.536Z,4.33
2022-12-19T20:11:34.798Z,3.90
2022-12-19T20:14:04.395Z,4.40
2022-12-19T20:16:41.289Z,3.80
2022-12-19T20:19:28.685Z,4.40
2022-12-19T20:21:57.793Z,4.10
2022-12-19T20:24:26.042Z,4.20
2022-12-19T20:26:54.762Z,4.10
2022-12-19T20:29:23.076Z,4.10
2022-12-19T20:31:52.293Z,5.30
2022-12-19T20:34:22.111Z,3.87
2022-12-19T20:36:50.362Z,3.90
2022-12-19T20:39:21.915Z,3.70
2022-12-19T20:41:50.739Z,4.07
2022-12-19T20:44:24.091Z,3.67
2022-12-19T20:46:52.836Z,3.83
2022-12-19T20:49:23.005Z,3.60
2022-12-19T20:51:51.227Z,3.47
2022-12-19T20:54:19.546Z,4.00
2022-12-19T20:56:48.325Z,4.10
2022-12-19T20:59:16.671Z,3.53
2022-12-19T21:01:45.243Z,3.33
2022-12-19T21:04:13.738Z,3.63
2022-12-19T21:06:43.573Z,4.00
2022-12-19T21:09:12.743Z,4.00
2022-12-19T21:11:41.032Z,3.60
2022-12-19T21:14:11.474Z,3.63
2022-12-19T21:16:39.828Z,4.47
2022-12-19T21:19:08.128Z,3.53
2022-12-19T21:21:36.336Z,4.00
2022-12-19T21:24:06.089Z,3.90
2022-12-19T21:26:34.414Z,3.80
2022-12-19T21:29:02.667Z,4.20
2022-12-19T21:31:31.643Z,3.33
2022-12-19T21:34:01.039Z,3.33
2022-12-19T21:36:29.987Z,3.30
2022-12-19T21:38:59.228Z,3.70
2022-12-19T21:41:32.407Z,3.90
2022-12-19T21:44:02.808Z,3.50
2022-12-19T21:46:35.160Z,3.70
2022-12-19T21:49:15.224Z,3.53
2022-12-19T21:51:47.719Z,3.50
2022-12-19T21:54:16.002Z,3.50
2022-12-19T21:56:45.994Z,3.80
2022-12-19T21:59:15.004Z,3.53
2022-12-19T22:01:43.891Z,3.57
2022-12-19T22:04:13.286Z,3.60
2022-12-19T22:06:41.638Z,3.50
2022-12-19T22:09:10.980Z,3.47
2022-12-19T22:11:39.176Z,3.90
2022-12-19T22:14:08.802Z,3.40
2022-12-19T22:16:37.582Z,3.67
2022-12-19T22:19:06.504Z,3.47
2022-12-19T22:21:34.854Z,3.60
2022-12-19T22:24:03.863Z,3.33
2022-12-19T22:26:32.823Z,3.70
2022-12-19T22:29:01.195Z,3.80
2022-12-19T22:31:31.836Z,3.77
2022-12-19T22:34:01.703Z,3.77
2022-12-19T22:36:30.638Z,3.67
2022-12-19T22:38:59.463Z,3.67
2022-12-19T22:41:28.040Z,3.40
2022-12-19T22:43:56.772Z,4.40
2022-12-19T22:46:26.701Z,3.60
2022-12-19T22:48:57.329Z,3.57
2022-12-19T22:51:25.783Z,3.90
2022-12-19T22:53:54.256Z,3.80
2022-12-19T22:56:23.662Z,3.93
2022-12-19T22:58:52.600Z,3.90
2022-12-19T23:01:21.716Z,3.70
2022-12-19T23:03:51.448Z,3.50
2022-12-19T23:06:21.834Z,3.27
2022-12-19T23:08:50.122Z,3.60
2022-12-19T23:11:20.123Z,3.77
2022-12-19T23:13:49.055Z,3.73
2022-12-19T23:16:17.881Z,3.50
2022-12-19T23:18:46.236Z,3.63
2022-12-19T23:21:15.643Z,3.77
2022-12-19T23:23:46.508Z,3.70
2022-12-19T23:26:16.348Z,3.50
2022-12-19T23:28:44.962Z,3.57
2022-12-19T23:31:14.708Z,3.70
2022-12-19T23:33:42.978Z,3.63
2022-12-19T23:36:11.445Z,3.57
2022-12-19T23:38:40.622Z,4.17
2022-12-19T23:41:11.952Z,3.57
2022-12-19T23:43:40.625Z,3.73
2022-12-19T23:46:09.540Z,3.63
2022-12-19T23:48:37.941Z,3.63
2022-12-19T23:51:07.345Z,3.90
2022-12-19T23:53:36.001Z,3.67
2022-12-19T23:56:05.010Z,3.50
2022-12-19T23:58:34.673Z,3.63
